createdAt,value
2018-01-31T01:53:39.768Z,7.30
2018-01-31T01:56:07.323Z,7.30
2018-01-31T01:58:35.066Z,7.30
2018-01-31T02:01:02.627Z,7.30
2018-01-31T02:03:30.237Z,7.30
2018-01-31T02:05:58.707Z,7.30
2018-01-31T02:08:26.267Z,7.20
2018-01-31T02:10:54.657Z,7.20
2018-01-31T02:13:23.046Z,7.30
2018-01-31T02:15:50.617Z,7.20
2018-01-31T02:18:18.165Z,7.30
2018-01-31T02:20:45.735Z,7.10
2018-01-31T02:23:13.333Z,7.10
2018-01-31T02:25:40.891Z,7.10
2018-01-31T02:28:08.462Z,7.20
2018-01-31T02:30:36.047Z,7.30
2018-01-31T02:33:04.386Z,7.20
2018-01-31T02:35:31.943Z,7.10
2018-01-31T02:37:59.528Z,7.20
2018-01-31T02:40:27.857Z,7.20
2018-01-31T02:42:55.449Z,7.10
2018-01-31T02:45:23.126Z,7.20
2018-01-31T02:47:51.478Z,7.10
2018-01-31T02:50:19.063Z,7.10
2018-01-31T02:52:47.421Z,7.10
2018-01-31T02:55:15.099Z,7.10
2018-01-31T02:57:43.659Z,7.10
2018-01-31T03:00:11.229Z,7.00
2018-01-31T03:02:39.565Z,7.10
2018-01-31T03:05:07.135Z,7.00
2018-01-31T03:07:34.921Z,7.20
2018-01-31T03:10:03.261Z,7.10
2018-01-31T03:12:30.833Z,7.10
2018-01-31T03:14:58.427Z,7.10
2018-01-31T03:17:26.847Z,6.90
2018-01-31T03:19:54.401Z,6.80
2018-01-31T03:22:22.008Z,6.90
2018-01-31T03:24:49.582Z,7.00
2018-01-31T03:27:17.921Z,6.90
2018-01-31T03:29:45.501Z,6.80
2018-01-31T03:32:13.061Z,6.80
2018-01-31T03:34:40.619Z,6.80
2018-01-31T03:37:08.285Z,6.90
2018-01-31T03:39:36.605Z,6.90
2018-01-31T03:42:04.222Z,6.90
2018-01-31T03:44:32.551Z,6.90
2018-01-31T03:47:00.122Z,6.80
2018-01-31T03:49:27.702Z,6.90
2018-01-31T03:51:55.350Z,6.90
2018-01-31T03:54:22.922Z,6.90
2018-01-31T03:56:50.507Z,6.90
2018-01-31T03:59:18.124Z,6.90
2018-01-31T04:01:45.709Z,6.90
2018-01-31T04:04:14.094Z,6.90
2018-01-31T04:06:42.454Z,6.90
2018-01-31T04:09:10.066Z,6.90
2018-01-31T04:11:37.658Z,6.90
2018-01-31T04:14:05.330Z,6.90
2018-01-31T04:16:32.991Z,7.00
2018-01-31T04:19:00.559Z,6.80
2018-01-31T04:21:28.902Z,6.80
2018-01-31T04:23:56.475Z,6.80
2018-01-31T04:26:24.052Z,6.90
2018-01-31T04:28:52.378Z,6.80
2018-01-31T04:31:19.927Z,6.70
2018-01-31T04:33:47.511Z,6.90
2018-01-31T04:36:15.069Z,6.90
2018-01-31T04:38:42.628Z,6.90
2018-01-31T04:41:10.411Z,6.80
2018-01-31T04:43:38.081Z,6.90
2018-01-31T04:46:06.400Z,6.90
2018-01-31T04:48:33.984Z,6.80
2018-01-31T04:51:01.552Z,6.90
2018-01-31T04:53:29.225Z,7.00
2018-01-31T04:55:56.798Z,6.90
2018-01-31T04:58:25.177Z,6.90
2018-01-31T05:00:53.499Z,6.90
2018-01-31T05:03:21.092Z,6.80
2018-01-31T05:05:48.757Z,6.80
2018-01-31T05:08:16.430Z,6.80
2018-01-31T05:10:44.775Z,6.80
2018-01-31T05:13:12.337Z,6.80
2018-01-31T05:15:40.016Z,6.60
2018-01-31T05:18:07.661Z,6.60
2018-01-31T05:20:35.284Z,6.60
2018-01-31T05:23:02.831Z,6.50
2018-01-31T05:25:30.420Z,6.50
2018-01-31T05:27:58.013Z,6.60
2018-01-31T05:30:26.356Z,6.60
2018-01-31T05:32:53.909Z,6.60
2018-01-31T05:35:21.483Z,6.60
2018-01-31T05:37:49.057Z,6.60
2018-01-31T05:40:16.623Z,6.60
2018-01-31T05:42:44.980Z,6.70
2018-01-31T05:45:12.572Z,6.60
2018-01-31T05:47:40.916Z,6.70
2018-01-31T05:50:08.496Z,6.60
2018-01-31T05:52:36.853Z,6.70
2018-01-31T05:55:04.473Z,6.70
2018-01-31T05:57:32.034Z,6.70
2018-01-31T05:59:59.611Z,6.90
2018-01-31T06:02:37.268Z,6.90
2018-01-31T06:05:04.841Z,6.80
2018-01-31T06:07:32.444Z,6.70
2018-01-31T06:10:00.091Z,6.70
2018-01-31T06:12:27.659Z,6.60
2018-01-31T06:14:55.335Z,6.70
2018-01-31T06:17:23.664Z,6.70
2018-01-31T06:19:51.303Z,6.70
2018-01-31T06:22:18.880Z,6.80
2018-01-31T06:24:46.430Z,6.80
2018-01-31T06:27:14.022Z,6.70
2018-01-31T06:29:41.587Z,6.70
2018-01-31T06:32:09.618Z,6.70
2018-01-31T06:34:37.184Z,6.70
2018-01-31T06:37:04.765Z,6.80
2018-01-31T06:39:32.364Z,6.80
2018-01-31T06:41:59.919Z,6.80
2018-01-31T06:44:28.241Z,6.60
2018-01-31T06:46:55.834Z,6.50
2018-01-31T06:49:23.458Z,6.60
2018-01-31T06:51:51.083Z,6.70
2018-01-31T06:54:18.766Z,6.60
2018-01-31T06:56:46.379Z,6.60
2018-01-31T06:59:14.755Z,6.60
2018-01-31T07:01:43.142Z,6.60
2018-01-31T07:04:11.481Z,6.70
2018-01-31T07:06:39.139Z,6.70
2018-01-31T07:09:06.880Z,6.80
2018-01-31T07:11:34.431Z,6.90
2018-01-31T07:14:01.990Z,7.00
2018-01-31T07:16:29.551Z,7.20
2018-01-31T07:18:57.211Z,7.20
2018-01-31T07:21:24.830Z,7.00
2018-01-31T07:23:53.203Z,6.90
2018-01-31T07:26:21.577Z,6.80
2018-01-31T07:28:49.968Z,6.80
2018-01-31T07:31:18.293Z,6.90
2018-01-31T07:33:45.862Z,6.80
2018-01-31T07:36:13.447Z,6.90
2018-01-31T07:38:41.784Z,6.90
2018-01-31T07:41:09.351Z,6.80
2018-01-31T07:43:36.908Z,6.90
2018-01-31T07:46:04.598Z,6.70
2018-01-31T07:48:32.985Z,7.00
2018-01-31T07:51:00.624Z,7.00
2018-01-31T07:53:28.210Z,7.40
2018-01-31T07:55:56.537Z,9.00
2018-01-31T07:58:24.105Z,9.00
2018-01-31T08:00:51.696Z,10.00
2018-01-31T08:03:20.030Z,11.20
2018-01-31T08:05:47.611Z,11.10
2018-01-31T08:08:15.229Z,11.20
2018-01-31T08:10:42.814Z,11.90
2018-01-31T08:13:10.422Z,12.10
2018-01-31T08:15:38.081Z,12.40
2018-01-31T08:18:05.767Z,13.00
2018-01-31T08:20:33.380Z,13.40
2018-01-31T08:23:01.730Z,13.50
2018-01-31T08:25:29.398Z,13.50
2018-01-31T08:27:58.067Z,13.20
2018-01-31T08:30:25.661Z,12.50
2018-01-31T08:32:54.030Z,13.20
2018-01-31T08:35:21.615Z,13.10
2018-01-31T08:37:49.176Z,13.40
2018-01-31T08:40:16.774Z,12.30
2018-01-31T08:42:44.336Z,12.30
2018-01-31T08:45:11.912Z,11.90
2018-01-31T08:47:39.507Z,12.50
2018-01-31T08:50:07.098Z,12.80
2018-01-31T08:52:34.683Z,13.00
2018-01-31T08:55:03.128Z,12.20
2018-01-31T08:57:30.721Z,12.20
2018-01-31T08:59:58.436Z,12.10
2018-01-31T09:02:26.021Z,11.90
2018-01-31T09:04:53.592Z,11.50
2018-01-31T09:07:21.156Z,11.50
2018-01-31T09:09:48.709Z,11.30
2018-01-31T09:12:16.383Z,11.30
2018-01-31T09:14:44.727Z,11.40
2018-01-31T09:17:12.306Z,11.40
2018-01-31T09:19:39.880Z,11.20
2018-01-31T09:22:07.462Z,11.30
2018-01-31T09:24:35.801Z,11.60
2018-01-31T09:27:03.375Z,11.60
2018-01-31T09:29:31.031Z,11.70
2018-01-31T09:31:59.374Z,10.60
2018-01-31T09:34:27.024Z,10.50
2018-01-31T09:36:54.684Z,10.20
2018-01-31T09:39:22.252Z,10.10
2018-01-31T09:41:49.831Z,10.10
2018-01-31T09:44:17.420Z,10.10
2018-01-31T09:46:45.765Z,11.00
2018-01-31T09:49:13.355Z,11.00
2018-01-31T09:51:41.692Z,11.50
2018-01-31T09:54:09.329Z,11.50
2018-01-31T09:56:36.923Z,11.70
2018-01-31T09:59:04.495Z,11.60
2018-01-31T10:01:32.902Z,12.20
2018-01-31T10:04:00.518Z,12.10
2018-01-31T10:06:28.097Z,13.00
2018-01-31T10:08:56.449Z,13.90
2018-01-31T10:11:24.105Z,13.90
2018-01-31T10:13:51.801Z,13.70
2018-01-31T10:16:19.384Z,14.00
2018-01-31T10:18:46.947Z,14.30
2018-01-31T10:21:14.614Z,14.30
2018-01-31T10:23:43.049Z,13.50
2018-01-31T10:26:11.408Z,13.30
2018-01-31T10:28:39.079Z,13.30
2018-01-31T10:31:06.753Z,13.20
2018-01-31T10:33:35.116Z,13.90
2018-01-31T10:36:02.688Z,13.80
2018-01-31T10:38:31.045Z,14.70
2018-01-31T10:40:58.705Z,14.60
2018-01-31T10:43:26.470Z,14.80
2018-01-31T10:45:54.857Z,14.20
2018-01-31T10:48:23.227Z,14.10
2018-01-31T10:50:50.838Z,14.00
2018-01-31T10:53:18.533Z,13.80
2018-01-31T10:58:13.926Z,13.70
2018-01-31T11:00:41.522Z,13.80
2018-01-31T11:03:09.189Z,14.10
2018-01-31T11:05:36.850Z,14.60
2018-01-31T11:08:04.503Z,15.00
2018-01-31T11:10:32.095Z,14.50
2018-01-31T11:13:09.592Z,14.00
2018-01-31T11:15:37.170Z,13.50
2018-01-31T11:18:04.763Z,13.50
2018-01-31T11:20:32.317Z,13.50
2018-01-31T11:22:59.919Z,14.50
2018-01-31T11:25:27.530Z,15.20
2018-01-31T11:27:55.135Z,16.20
2018-01-31T11:30:23.149Z,16.90
2018-01-31T11:32:50.764Z,17.00
2018-01-31T11:35:18.327Z,17.30
2018-01-31T11:37:45.894Z,17.70
2018-01-31T11:40:13.492Z,17.40
2018-01-31T11:42:41.102Z,17.50
2018-01-31T11:45:08.731Z,17.60
2018-01-31T11:47:36.358Z,17.90
2018-01-31T11:50:03.917Z,17.50
2018-01-31T11:52:31.484Z,17.70
2018-01-31T11:54:59.070Z,17.60
2018-01-31T11:57:27.419Z,17.20
2018-01-31T11:59:55.114Z,17.10
2018-01-31T12:02:23.562Z,15.80
2018-01-31T12:04:51.241Z,15.70
2018-01-31T12:07:18.884Z,15.50
2018-01-31T12:09:46.584Z,15.30
2018-01-31T12:15:22.805Z,15.10
2018-01-31T12:17:50.396Z,15.70
2018-01-31T12:20:29.914Z,15.80
2018-01-31T12:23:09.350Z,16.00
2018-01-31T12:25:48.709Z,16.50
2018-01-31T12:28:27.951Z,17.00
2018-01-31T12:31:09.169Z,16.20
2018-01-31T12:33:48.743Z,16.10
2018-01-31T12:39:21.678Z,14.90
2018-01-31T12:41:49.529Z,14.20
2018-01-31T12:44:17.520Z,14.00
2018-01-31T12:46:56.928Z,13.90
2018-01-31T12:49:37.109Z,13.80
2018-01-31T12:55:39.746Z,13.20
2018-01-31T12:58:19.229Z,13.10
2018-01-31T13:04:05.424Z,12.70
2018-01-31T13:09:47.470Z,13.40
2018-01-31T13:12:26.804Z,13.50
2018-01-31T13:18:03.906Z,13.30
2018-01-31T13:20:43.391Z,13.20
2018-01-31T13:23:10.988Z,13.10
2018-01-31T13:26:02.631Z,13.00
2018-01-31T13:28:44.040Z,12.90
2018-01-31T13:31:24.415Z,12.80
2018-01-31T13:34:03.863Z,12.80
2018-01-31T13:36:43.305Z,12.80
2018-01-31T13:39:22.742Z,12.80
2018-01-31T13:42:02.112Z,12.80
2018-01-31T13:44:41.480Z,12.80
2018-01-31T13:47:20.955Z,12.90
2018-01-31T13:50:01.170Z,12.90
2018-01-31T13:52:44.229Z,12.90
2018-01-31T13:55:24.609Z,13.10
2018-01-31T14:01:22.410Z,13.30
2018-01-31T14:04:14.610Z,13.20
2018-01-31T14:06:54.841Z,13.20
2018-01-31T14:09:34.249Z,13.20
2018-01-31T14:12:13.567Z,13.10
2018-01-31T14:14:52.937Z,12.90
2018-01-31T14:17:32.299Z,12.80
2018-01-31T14:20:12.443Z,12.80
2018-01-31T14:22:51.862Z,12.70
2018-01-31T14:25:31.178Z,12.90
2018-01-31T14:31:17.498Z,12.80
2018-01-31T14:33:56.822Z,12.80
2018-01-31T14:36:23.866Z,12.80
2018-01-31T14:38:51.015Z,12.80
2018-01-31T14:41:18.070Z,12.80
2018-01-31T14:43:45.163Z,12.70
2018-01-31T14:46:12.266Z,12.60
2018-01-31T14:48:39.315Z,12.60
2018-01-31T14:51:06.394Z,12.60
2018-01-31T14:53:33.454Z,12.40
2018-01-31T14:56:01.282Z,12.40
2018-01-31T14:58:28.383Z,12.40
2018-01-31T15:00:55.559Z,12.40
2018-01-31T15:03:22.956Z,12.40
2018-01-31T15:05:50.041Z,12.50
2018-01-31T15:08:17.119Z,12.50
2018-01-31T15:10:44.295Z,12.50
2018-01-31T15:13:11.353Z,12.40
2018-01-31T15:15:39.194Z,12.40
2018-01-31T15:18:06.344Z,12.30
2018-01-31T15:20:33.410Z,12.40
2018-01-31T15:23:01.259Z,12.30
2018-01-31T15:25:29.119Z,12.20
2018-01-31T15:27:56.192Z,12.20
2018-01-31T15:30:24.046Z,12.10
2018-01-31T15:32:51.114Z,12.00
2018-01-31T15:35:18.209Z,12.10
2018-01-31T15:37:45.287Z,11.90
2018-01-31T15:40:12.362Z,11.70
2018-01-31T15:42:39.452Z,11.60
2018-01-31T15:45:06.528Z,11.50
2018-01-31T15:47:33.677Z,11.40
2018-01-31T15:50:00.758Z,11.40
2018-01-31T15:52:27.835Z,11.30
2018-01-31T15:54:54.935Z,11.20
2018-01-31T15:57:22.807Z,11.00
2018-01-31T15:59:49.881Z,10.90
2018-01-31T16:02:16.967Z,10.90
2018-01-31T16:04:44.080Z,10.80
2018-01-31T16:07:11.166Z,10.90
2018-01-31T16:09:38.267Z,10.80
2018-01-31T16:12:05.327Z,10.70
2018-01-31T16:14:32.411Z,10.60
2018-01-31T16:17:00.750Z,10.50
2018-01-31T16:19:40.246Z,10.50
2018-01-31T16:22:08.624Z,10.50
2018-01-31T16:24:36.206Z,10.50
2018-01-31T16:27:03.792Z,10.50
2018-01-31T16:29:47.036Z,10.50
2018-01-31T16:32:27.299Z,10.30
2018-01-31T16:34:55.803Z,10.40
2018-01-31T16:37:23.496Z,10.30
2018-01-31T16:39:51.062Z,10.40
2018-01-31T16:42:18.656Z,10.50
2018-01-31T16:44:47.013Z,10.50
2018-01-31T16:47:14.575Z,10.40
2018-01-31T16:49:42.153Z,10.50
2018-01-31T16:52:10.491Z,10.50
2018-01-31T16:54:38.057Z,10.40
2018-01-31T16:57:05.647Z,10.50
2018-01-31T16:59:34.127Z,10.40
2018-01-31T17:02:02.549Z,10.50
2018-01-31T17:04:30.115Z,10.50
2018-01-31T17:06:57.718Z,10.50
2018-01-31T17:09:26.101Z,10.50
2018-01-31T17:11:54.435Z,10.50
2018-01-31T17:14:22.226Z,10.50
2018-01-31T17:16:49.796Z,10.50
2018-01-31T17:19:18.136Z,10.60
2018-01-31T17:21:45.725Z,10.50
2018-01-31T17:24:14.077Z,10.60
2018-01-31T17:26:41.676Z,10.50
2018-01-31T17:29:10.018Z,10.60
2018-01-31T17:31:37.576Z,10.50
2018-01-31T17:34:05.141Z,10.50
2018-01-31T17:36:32.723Z,10.60
2018-01-31T17:39:01.080Z,10.60
2018-01-31T17:41:28.666Z,10.50
2018-01-31T17:43:57.016Z,10.50
2018-01-31T17:46:24.579Z,10.40
2018-01-31T17:48:52.142Z,10.30
2018-01-31T17:51:20.513Z,10.30
2018-01-31T17:53:48.083Z,10.20
2018-01-31T17:56:16.459Z,10.20
2018-01-31T17:58:44.816Z,10.30
2018-01-31T18:01:12.393Z,10.20
2018-01-31T18:03:40.761Z,10.30
2018-01-31T18:06:09.127Z,10.40
2018-01-31T18:08:36.686Z,10.30
2018-01-31T18:11:04.254Z,10.40
2018-01-31T18:13:31.819Z,10.50
2018-01-31T18:16:00.162Z,10.50
2018-01-31T18:18:27.709Z,10.50
2018-01-31T18:20:55.281Z,10.50
2018-01-31T18:23:22.949Z,10.50
2018-01-31T18:25:50.505Z,10.60
2018-01-31T18:28:18.159Z,10.50
2018-01-31T18:30:45.735Z,10.40
2018-01-31T18:33:13.292Z,10.50
2018-01-31T18:35:40.864Z,10.50
2018-01-31T18:38:09.180Z,10.60
2018-01-31T18:40:36.746Z,10.50
2018-01-31T18:43:04.297Z,10.60
2018-01-31T18:45:31.948Z,10.70
2018-01-31T18:47:59.502Z,10.70
2018-01-31T18:50:27.094Z,10.60
2018-01-31T18:52:54.654Z,10.50
2018-01-31T18:55:22.241Z,10.50
2018-01-31T18:57:49.902Z,10.50
2018-01-31T19:00:18.282Z,10.50
2018-01-31T19:02:46.807Z,10.50
2018-01-31T19:05:14.394Z,10.50
2018-01-31T19:07:42.055Z,10.60
2018-01-31T19:10:09.720Z,10.60
2018-01-31T19:12:37.287Z,10.50
2018-01-31T19:15:04.902Z,10.50
2018-01-31T19:17:32.529Z,10.50
2018-01-31T19:20:00.891Z,10.50
2018-01-31T19:22:29.243Z,10.50
2018-01-31T19:24:56.798Z,10.50
2018-01-31T19:27:24.538Z,10.50
2018-01-31T19:29:52.179Z,10.50
2018-01-31T19:32:31.095Z,10.30
2018-01-31T19:34:58.703Z,10.30
2018-01-31T19:37:26.431Z,10.20
2018-01-31T19:39:54.012Z,10.30
2018-01-31T19:42:21.579Z,10.30
2018-01-31T19:44:49.146Z,10.30
2018-01-31T19:47:16.710Z,10.30
2018-01-31T19:49:44.288Z,10.20
2018-01-31T19:52:12.692Z,10.20
2018-01-31T19:54:40.275Z,10.20
2018-01-31T19:57:07.856Z,10.20
2018-01-31T19:59:46.044Z,10.30
2018-01-31T20:02:15.157Z,10.20
2018-01-31T20:04:42.718Z,10.10
2018-01-31T20:07:10.324Z,10.20
2018-01-31T20:09:37.882Z,10.20
2018-01-31T20:12:05.560Z,10.20
2018-01-31T20:14:33.989Z,10.20
2018-01-31T20:17:01.649Z,10.10
2018-01-31T20:19:30.187Z,10.00
2018-01-31T20:21:57.883Z,10.00
2018-01-31T20:24:25.458Z,10.00
2018-01-31T20:26:53.840Z,10.10
2018-01-31T20:29:22.195Z,10.10
2018-01-31T20:31:49.758Z,10.10
2018-01-31T20:34:17.474Z,10.00
2018-01-31T20:36:45.084Z,10.00
2018-01-31T20:39:13.516Z,9.90
2018-01-31T20:41:41.146Z,9.80
2018-01-31T20:44:08.719Z,9.90
2018-01-31T20:46:36.268Z,9.80
2018-01-31T20:49:03.906Z,9.80
2018-01-31T20:51:32.226Z,10.00
2018-01-31T20:53:59.819Z,9.90
2018-01-31T20:56:27.377Z,10.10
2018-01-31T20:58:54.947Z,10.20
2018-01-31T21:01:23.278Z,10.30
2018-01-31T21:03:50.987Z,10.20
2018-01-31T21:06:19.349Z,10.30
2018-01-31T21:08:46.923Z,10.30
2018-01-31T21:11:15.349Z,10.30
2018-01-31T21:13:42.916Z,10.30
2018-01-31T21:16:10.488Z,10.30
2018-01-31T21:18:38.117Z,10.30
2018-01-31T21:21:05.682Z,10.30
2018-01-31T21:23:33.300Z,10.20
2018-01-31T21:26:00.901Z,10.20
2018-01-31T21:28:28.492Z,10.20
2018-01-31T21:30:56.168Z,10.30
2018-01-31T21:33:23.827Z,10.20
2018-01-31T21:35:51.603Z,10.20
2018-01-31T21:38:19.953Z,10.00
2018-01-31T21:40:47.516Z,9.90
2018-01-31T21:43:15.092Z,9.90
2018-01-31T21:45:43.439Z,9.80
2018-01-31T21:48:11.119Z,9.80
2018-01-31T21:50:38.683Z,9.80
2018-01-31T21:53:06.262Z,9.80
2018-01-31T21:55:33.829Z,9.70
2018-01-31T21:58:01.407Z,9.60
2018-01-31T22:00:29.047Z,9.60
2018-01-31T22:02:56.682Z,9.60
2018-01-31T22:05:25.019Z,9.50
2018-01-31T22:07:52.577Z,9.40
2018-01-31T22:10:20.160Z,9.40
2018-01-31T22:12:48.525Z,9.40
2018-01-31T22:15:16.208Z,9.40
2018-01-31T22:17:44.555Z,9.40
2018-01-31T22:20:12.166Z,9.30
2018-01-31T22:22:39.723Z,9.30
2018-01-31T22:25:07.270Z,9.50
2018-01-31T22:27:35.610Z,9.50
2018-01-31T22:30:03.281Z,9.50
2018-01-31T22:32:30.869Z,9.50
2018-01-31T22:34:59.195Z,9.30
2018-01-31T22:37:26.804Z,9.30
2018-01-31T22:39:55.135Z,9.30
2018-01-31T22:42:22.685Z,9.20
2018-01-31T22:44:50.275Z,9.20
2018-01-31T22:47:17.870Z,9.20
2018-01-31T22:49:45.429Z,9.20
2018-01-31T22:52:13.754Z,9.10
2018-01-31T22:54:41.369Z,9.10
2018-01-31T22:57:08.971Z,9.00
2018-01-31T22:59:36.563Z,9.10
2018-01-31T23:02:05.035Z,9.10
2018-01-31T23:04:33.378Z,9.20
2018-01-31T23:07:00.974Z,9.10
2018-01-31T23:09:29.336Z,9.10
2018-01-31T23:11:56.911Z,9.10
2018-01-31T23:14:30.940Z,9.00
2018-01-31T23:16:58.562Z,9.00
2018-01-31T23:19:26.224Z,9.00
2018-01-31T23:21:53.787Z,9.20
2018-01-31T23:24:22.173Z,9.20
2018-01-31T23:26:50.511Z,9.00
2018-01-31T23:29:18.100Z,9.00
2018-01-31T23:31:46.464Z,9.00
2018-01-31T23:34:14.840Z,9.00
2018-01-31T23:36:42.520Z,8.90
2018-01-31T23:39:10.904Z,8.90
2018-01-31T23:41:39.254Z,8.90
2018-01-31T23:44:06.819Z,8.80
2018-01-31T23:46:34.481Z,8.90
2018-01-31T23:49:02.060Z,8.80
2018-01-31T23:51:30.517Z,8.90
2018-01-31T23:53:58.100Z,8.90
2018-01-31T23:56:25.660Z,9.10
2018-01-31T23:58:54.122Z,9.00
